Tropical Cyclones
[Index]
Main Index Home Page Stock Weather Photos Extreme Storms Discussion Storm News and Storm Chasing Reports Tropical Cyclones / Hurricanes / Typhoons Weather Data and Links Wild Fires / Bushfires Weather Observation Techniques Weather Picture Catalogue Tornado Pictures and Reports Stock Video Footage and DVDs for sale
Season 1989-1990 Tropical Cyclone GREGOARA Track Map
Season 1989-1990 Summaries: [BoM-AU] [JTWC-AU] [JTWC-SIO] [JTWC-SPAC] [JTWC-SH]
<<- Previous TC | JTWC 1989-1990 Season | Next TC ->>

click for intensity scale information  Lat/long Grid: Show Hide

 Date Labels: Show Hide

Joint Typhoon Warning Centre Cyclone Data

Name: GREGOARA

11 Mar 1990 00:00 UTC to 24 Mar 1990 00:00 UTC

    date/time    lat    long     hPa   cat  kts
1990-03-11 00   12.0    98.0                  15          
1990-03-11 06   12.5    97.9                  15          
1990-03-11 12   13.0    97.8                  15          
1990-03-11 18   13.3    97.5                  20          
1990-03-12 00   13.4    97.0                  25          
1990-03-12 06   13.4    96.4                  25          
1990-03-12 12   13.3    95.6                  25          
1990-03-12 18   13.2    94.5                  25          
1990-03-13 00   12.8    93.3                  25          
1990-03-13 06   12.3    91.9                  25          
1990-03-13 12   11.8    90.8                  30          
1990-03-13 18   11.5    90.0                  35          
1990-03-14 00   11.3    89.4            1     40          
1990-03-14 06   11.2    88.6            1     45          
1990-03-14 12   11.4    87.8            1     50          
1990-03-14 18   11.6    87.0            2     60          
1990-03-15 00   11.9    86.2            2     65          
1990-03-15 06   12.1    85.5            2     70          
1990-03-15 12   12.3    84.7            3     75          
1990-03-15 18   12.7    84.3            3     80          
1990-03-16 00   13.1    84.0            3     80          
1990-03-16 06   13.6    83.8            3     85          
1990-03-16 12   14.0    83.7            3     85          
1990-03-16 18   14.4    83.3            3     85          
1990-03-17 00   14.8    83.2            3     90          
1990-03-17 06   15.3    82.9            3     95          
1990-03-17 12   15.7    82.5            4    100          
1990-03-17 18   16.1    82.2            4    105          
1990-03-18 00   16.5    81.7            4    110          
1990-03-18 06   16.9    81.1            4    110          
1990-03-18 12   17.3    80.4            4    110          
1990-03-18 18   17.8    79.6            4    105          
1990-03-19 00   18.2    78.9            4    100          
1990-03-19 06   18.7    78.4            3     90          
1990-03-19 12   19.4    77.9            3     85          
1990-03-19 18   20.2    77.4            3     80          
1990-03-20 00   20.9    77.2            3     75          
1990-03-20 06   21.5    77.1            2     65          
1990-03-20 12   22.0    76.9            2     60          
1990-03-20 18   22.2    76.5            2     55          
1990-03-21 00   22.3    75.9            1     45          
1990-03-21 06   22.7    75.2            1     40          
1990-03-21 12   23.3    74.8            1     40          
1990-03-21 18   24.0    74.6                  35          
1990-03-22 00   24.8    74.5                  35          
1990-03-22 06   25.6    75.0                  30          
1990-03-22 12   26.2    75.6                  30          
1990-03-22 18   26.8    76.3                  30          
1990-03-23 00   27.2    77.1                  30          
1990-03-23 06   27.6    78.2                  30          
1990-03-23 12   27.9    79.3                  30          
1990-03-23 18   28.3    80.7                  30          
1990-03-24 00   28.4    82.1                  30          
Winds are 1-min average.

Tropical cyclone tracks developed by Michael Bath using data from the Joint Typhoon Warning Centre Best Tracks and Google Maps.


[Australian Severe Weather index] [Copyright Notice] [Email Contacts] [Search This Site] [Privacy Policy]
Document: tropical_cyclone_gregoara.htm Updated: 18 September 2016